Time;durP1;ratioP1;P1;durP2;ratioP2;P2;SDS_P1;SDS_P2;PMS_P1;PMS_P2;Temp;Humidity;BMP_temperature;BMP_pressure;BME280_temperature;BME280_humidity;BME280_pressure;Samples;Min_cycle;Max_cycle;Signal;HPM_P1;HPM_P2
2022/12/14 00:00:37;;;;;;;24.05;12.95;;;1.30;90.70;;;;;;5077400;28;20032;-75
2022/12/14 00:03:03;;;;;;;19.77;12.25;;;1.30;90.70;;;;;;5075846;28;20081;-75
2022/12/14 00:05:28;;;;;;;27.25;13.45;;;1.30;90.60;;;;;;5059541;28;20552;-74
2022/12/14 00:07:54;;;;;;;22.20;12.18;;;1.40;90.50;;;;;;5075678;28;20029;-75
2022/12/14 00:10:19;;;;;;;27.45;13.85;;;1.40;90.40;;;;;;5076774;28;20047;-75
2022/12/14 00:12:45;;;;;;;24.63;13.55;;;1.40;90.30;;;;;;5075570;28;20063;-75
2022/12/14 00:15:11;;;;;;;22.67;13.45;;;1.40;90.30;;;;;;5076803;28;20116;-75
2022/12/14 00:17:37;;;;;;;24.27;13.25;;;1.40;90.10;;;;;;5077005;28;20036;-74
2022/12/14 00:20:03;;;;;;;25.83;13.30;;;1.30;90.30;;;;;;5075273;28;20110;-74
2022/12/14 00:22:28;;;;;;;22.25;12.32;;;1.20;90.30;;;;;;5076890;28;20021;-75
2022/12/14 00:24:54;;;;;;;23.00;13.30;;;1.20;90.50;;;;;;5076180;28;20051;-74
2022/12/14 00:27:19;;;;;;;24.33;13.55;;;1.20;90.40;;;;;;5076800;28;20032;-75
2022/12/14 00:29:45;;;;;;;25.42;13.88;;;1.10;90.40;;;;;;5075391;28;20040;-74
2022/12/14 00:32:11;;;;;;;23.73;12.88;;;1.00;90.70;;;;;;5075756;28;20032;-74
2022/12/14 00:34:37;;;;;;;21.65;12.30;;;1.00;90.90;;;;;;5076446;28;20029;-74
2022/12/14 00:37:02;;;;;;;21.95;12.20;;;1.10;90.70;;;;;;5076540;28;20032;-74
2022/12/14 00:39:28;;;;;;;22.75;12.85;;;1.20;90.70;;;;;;5075325;28;20041;-75
2022/12/14 00:41:54;;;;;;;22.88;12.73;;;1.10;90.50;;;;;;5075388;28;20081;-75
2022/12/14 00:44:20;;;;;;;22.55;12.93;;;1.10;90.70;;;;;;5075179;28;20086;-75
2022/12/14 00:46:46;;;;;;;27.75;13.80;;;1.10;90.70;;;;;;5076154;28;20025;-75
2022/12/14 00:49:11;;;;;;;22.45;12.60;;;1.00;90.70;;;;;;5074987;28;20040;-74
2022/12/14 00:51:37;;;;;;;21.17;12.65;;;1.10;90.70;;;;;;5076140;28;20032;-74
2022/12/14 00:54:03;;;;;;;23.45;12.77;;;1.10;90.60;;;;;;5076307;28;20024;-74
2022/12/14 00:56:29;;;;;;;24.77;12.52;;;1.20;90.40;;;;;;5075743;28;20486;-75
2022/12/14 00:58:55;;;;;;;24.20;12.60;;;1.20;90.20;;;;;;5076246;28;20029;-75
2022/12/14 01:01:21;;;;;;;23.05;12.73;;;1.30;90.10;;;;;;5075958;28;20027;-74
2022/12/14 01:03:47;;;;;;;24.60;12.95;;;1.30;90.10;;;;;;5075835;28;20029;-74
2022/12/14 01:06:14;;;;;;;24.10;12.50;;;1.30;89.90;;;;;;5074832;28;20047;-74
2022/12/14 01:08:39;;;;;;;21.90;12.38;;;1.30;89.70;;;;;;5076028;28;20025;-74
2022/12/14 01:11:07;;;;;;;24.58;13.32;;;1.20;89.60;;;;;;5074580;28;20406;-75
2022/12/14 01:13:34;;;;;;;25.40;13.65;;;1.10;90.00;;;;;;5075098;28;20089;-74
2022/12/14 01:16:12;;;;;;;22.88;11.80;;;1.00;90.20;;;;;;5076067;28;20148;-75
2022/12/14 01:18:39;;;;;;;24.40;13.30;;;1.00;90.30;;;;;;5074440;28;20028;-75
2022/12/14 01:21:11;;;;;;;23.58;12.73;;;1.00;90.10;;;;;;5075695;28;20039;-74
2022/12/14 01:23:37;;;;;;;22.30;12.40;;;0.90;90.30;;;;;;5075860;28;20020;-75
2022/12/14 01:26:03;;;;;;;22.20;11.68;;;0.80;90.30;;;;;;5075000;28;20124;-74
2022/12/14 01:28:29;;;;;;;21.05;12.38;;;0.90;90.40;;;;;;5074386;28;20024;-75
2022/12/14 01:30:54;;;;;;;22.60;12.13;;;0.90;90.30;;;;;;5074082;28;20511;-75
2022/12/14 01:33:20;;;;;;;21.75;11.93;;;0.90;90.20;;;;;;5057748;28;20507;-75
2022/12/14 01:35:45;;;;;;;22.00;12.27;;;0.90;90.20;;;;;;5057494;28;20032;-75
2022/12/14 01:38:11;;;;;;;21.13;11.65;;;0.90;90.30;;;;;;5074173;28;20029;-75
2022/12/14 01:40:36;;;;;;;21.77;11.82;;;1.00;90.20;;;;;;5074130;28;20491;-75
2022/12/14 01:43:02;;;;;;;20.60;11.40;;;1.00;90.10;;;;;;5075237;28;20033;-75
2022/12/14 01:45:28;;;;;;;22.80;11.35;;;1.10;90.00;;;;;;5075194;28;20028;-75
2022/12/14 01:48:00;;;;;;;21.38;11.55;;;1.10;89.40;;;;;;5075435;28;20020;-75
2022/12/14 01:50:31;;;;;;;22.90;11.45;;;1.10;89.00;;;;;;5074772;28;20032;-75
2022/12/14 01:53:01;;;;;;;18.80;10.55;;;1.10;89.20;;;;;;5075100;28;20409;-74
2022/12/14 01:55:32;;;;;;;21.20;11.40;;;1.00;89.20;;;;;;5074417;28;20384;-75
2022/12/14 01:58:05;;;;;;;17.88;10.68;;;1.00;89.20;;;;;;5075265;28;20020;-75
2022/12/14 02:00:31;;;;;;;19.63;11.07;;;1.00;89.00;;;;;;5075389;28;20028;-75
2022/12/14 02:03:09;;;;;;;20.95;11.30;;;1.00;89.00;;;;;;5075339;28;20040;-75
2022/12/14 02:05:40;;;;;;;18.73;10.30;;;1.00;88.80;;;;;;5073731;28;20109;-74
2022/12/14 02:08:07;;;;;;;19.63;10.70;;;0.90;88.90;;;;;;5074663;28;20514;-74
2022/12/14 02:10:33;;;;;;;17.77;10.25;;;0.90;89.00;;;;;;5074712;28;20123;-74
2022/12/14 02:13:07;;;;;;;21.02;10.75;;;1.00;88.90;;;;;;5074167;28;20063;-75
2022/12/14 02:15:34;;;;;;;17.88;10.02;;;1.00;88.50;;;;;;5074966;28;20056;-76
2022/12/14 02:18:04;;;;;;;18.20;9.70;;;1.00;88.00;;;;;;5074195;28;20033;-75
2022/12/14 02:20:38;;;;;;;18.88;9.93;;;1.10;88.10;;;;;;5073425;28;20423;-75
2022/12/14 02:23:31;;;;;;;17.35;9.45;;;1.10;87.60;;;;;;5074471;28;20051;-75
2022/12/14 02:26:21;;;;;;;;;;;1.10;86.90;;;;;;5074417;28;20469;-75
2022/12/14 02:29:08;;;;;;;18.38;10.10;;;1.10;86.80;;;;;;5074380;28;19909;-75
2022/12/14 02:31:43;;;;;;;18.15;9.75;;;1.10;86.70;;;;;;5073168;28;20087;-74
2022/12/14 02:34:47;;;;;;;16.80;9.65;;;1.10;86.50;;;;;;5074503;28;20021;-74
2022/12/14 02:37:24;;;;;;;17.45;9.40;;;1.10;86.50;;;;;;5042669;28;20037;-75
2022/12/14 02:39:55;;;;;;;18.55;9.70;;;1.00;86.50;;;;;;5074431;28;20034;-75
2022/12/14 02:42:36;;;;;;;16.92;9.52;;;0.90;87.30;;;;;;5074263;28;20036;-74
2022/12/14 02:45:25;;;;;;;18.75;9.90;;;0.90;87.20;;;;;;5074416;28;20099;-75
2022/12/14 02:47:54;;;;;;;17.27;10.02;;;0.90;87.10;;;;;;5073956;28;20027;-75
2022/12/14 02:50:42;;;;;;;17.73;9.93;;;0.80;87.30;;;;;;5074119;28;20038;-75
2022/12/14 02:53:23;;;;;;;15.88;9.23;;;0.80;87.10;;;;;;5074116;28;20021;-75
2022/12/14 02:55:55;;;;;;;18.75;9.05;;;0.80;86.60;;;;;;5073504;28;20087;-75
2022/12/14 02:58:34;;;;;;;19.30;9.60;;;0.90;86.10;;;;;;5074079;28;20025;-75
2022/12/14 03:01:01;;;;;;;16.90;9.48;;;0.80;86.40;;;;;;5072801;28;20032;-75
2022/12/14 03:03:27;;;;;;;21.33;8.88;;;0.70;86.40;;;;;;5056018;28;20033;-75
2022/12/14 03:06:02;;;;;;;19.55;10.18;;;0.60;86.90;;;;;;5072544;28;20385;-75
2022/12/14 03:08:33;;;;;;;16.38;9.25;;;0.50;86.90;;;;;;5073829;28;20475;-75
2022/12/14 03:11:04;;;;;;;14.60;8.70;;;0.40;87.10;;;;;;5073720;28;20511;-75
2022/12/14 03:14:05;;;;;;;18.35;9.15;;;0.40;87.60;;;;;;5073564;28;20021;-75
2022/12/14 03:16:40;;;;;;;17.35;9.70;;;0.40;87.40;;;;;;5069990;28;20132;-75
2022/12/14 03:19:25;;;;;;;16.95;9.02;;;0.50;87.30;;;;;;5072507;28;20481;-75
2022/12/14 03:22:03;;;;;;;16.75;8.70;;;0.60;87.30;;;;;;5072507;28;20026;-75
2022/12/14 03:24:42;;;;;;;17.70;9.27;;;0.60;87.00;;;;;;5071608;28;20086;-75
2022/12/14 03:27:39;;;;;;;17.30;8.50;;;0.70;86.90;;;;;;5073316;28;20029;-75
2022/12/14 03:30:09;;;;;;;16.05;8.55;;;0.70;86.20;;;;;;5073130;28;20059;-75
2022/12/14 03:32:41;;;;;;;18.35;9.20;;;0.70;86.30;;;;;;5073671;28;20126;-75
2022/12/14 03:35:28;;;;;;;16.23;8.52;;;0.70;86.00;;;;;;5073345;28;20032;-75
2022/12/14 03:38:10;;;;;;;17.10;8.98;;;0.70;85.90;;;;;;5073589;28;20028;-74
2022/12/14 03:41:02;;;;;;;17.30;7.70;;;0.80;86.40;;;;;;5073356;28;20028;-75
2022/12/14 03:43:40;;;;;;;16.27;8.43;;;0.70;85.80;;;;;;5064859;28;20041;-75
2022/12/14 03:46:35;;;;;;;16.48;8.23;;;0.80;85.30;;;;;;5072270;28;20062;-75
2022/12/14 03:49:19;;;;;;;15.13;7.68;;;0.90;84.80;;;;;;5064632;28;20040;-75
2022/12/14 03:51:45;;;;;;;13.95;8.07;;;0.90;84.40;;;;;;5073295;28;20078;-74
2022/12/14 03:54:37;;;;;;;16.55;8.85;;;0.80;84.40;;;;;;5073022;28;20024;-75
2022/12/14 03:57:27;;;;;;;14.45;7.88;;;0.70;84.60;;;;;;5073028;28;20112;-75
2022/12/14 04:00:16;;;;;;;14.40;8.45;;;0.80;84.20;;;;;;5073084;28;20114;-75
2022/12/14 04:02:49;;;;;;;15.70;8.88;;;0.90;84.20;;;;;;5073399;28;20021;-75
2022/12/14 04:05:33;;;;;;;16.70;8.38;;;1.00;84.00;;;;;;5071906;28;20028;-75
2022/12/14 04:08:18;;;;;;;14.43;8.15;;;0.90;83.80;;;;;;5072502;28;20039;-76
2022/12/14 04:19:27;;;;;;;15.65;8.13;;;0.80;83.80;;;;;;5073320;28;20515;-76
2022/12/14 04:22:01;;;;;;;14.18;7.72;;;0.70;83.70;;;;;;5071840;28;20427;-75
2022/12/14 04:27:40;;;;;;;14.20;7.53;;;0.70;83.80;;;;;;5073154;28;20035;-75
2022/12/14 04:30:08;;;;;;;14.35;7.47;;;0.80;83.50;;;;;;5073058;28;20035;-75
2022/12/14 04:32:43;;;;;;;15.85;7.72;;;0.80;83.40;;;;;;5072336;28;20031;-75
2022/12/14 04:35:08;;;;;;;14.75;8.05;;;0.60;83.70;;;;;;5072937;28;20024;-75
2022/12/14 04:37:37;;;;;;;18.35;7.47;;;0.70;84.50;;;;;;5076715;28;20104;-75
2022/12/14 04:40:17;;;;;;;13.65;7.20;;;0.80;83.70;;;;;;5076192;28;20494;-76
2022/12/14 04:42:51;;;;;;;14.80;7.78;;;0.80;83.60;;;;;;5076616;28;20025;-76
2022/12/14 04:45:32;;;;;;;13.85;6.88;;;0.80;83.40;;;;;;5076631;28;20056;-76
2022/12/14 04:48:30;;;;;;;12.48;6.93;;;0.80;83.10;;;;;;5076249;28;20032;-75
2022/12/14 04:51:23;;;;;;;14.55;7.45;;;0.80;82.70;;;;;;5074806;28;20040;-76
2022/12/14 04:53:56;;;;;;;17.75;8.15;;;0.70;82.90;;;;;;5076475;28;20024;-76
2022/12/14 04:56:44;;;;;;;13.77;6.82;;;0.70;83.40;;;;;;5075626;28;20495;-76
2022/12/14 04:59:10;;;;;;;14.02;6.90;;;0.50;83.70;;;;;;5075220;28;20052;-76
2022/12/14 05:01:53;;;;;;;14.45;7.68;;;0.60;83.90;;;;;;5058472;28;20082;-75
2022/12/14 05:04:19;;;;;;;11.98;7.00;;;0.60;83.80;;;;;;5076385;28;20506;-75
2022/12/14 05:06:54;;;;;;;13.45;7.22;;;0.60;83.60;;;;;;5075905;28;20037;-75
2022/12/14 05:09:30;;;;;;;15.32;7.38;;;0.60;83.40;;;;;;5075840;28;20094;-75
2022/12/14 05:12:08;;;;;;;13.00;6.40;;;0.60;83.20;;;;;;5076229;28;20070;-75
2022/12/14 05:14:43;;;;;;;11.35;6.53;;;0.60;83.50;;;;;;5074294;28;20048;-76
2022/12/14 05:17:09;;;;;;;14.70;7.00;;;0.70;83.40;;;;;;5075977;28;20039;-75
2022/12/14 05:19:36;;;;;;;15.73;7.15;;;0.80;82.80;;;;;;5076133;28;20464;-76
2022/12/14 05:22:06;;;;;;;18.13;7.93;;;0.80;82.70;;;;;;5075924;28;20024;-75
2022/12/14 05:24:31;;;;;;;13.93;7.15;;;0.70;82.70;;;;;;5075638;28;20571;-76
2022/12/14 05:26:57;;;;;;;15.10;7.40;;;0.70;83.20;;;;;;5075221;28;20136;-76
2022/12/14 05:29:23;;;;;;;14.55;7.65;;;0.70;83.00;;;;;;5074538;28;20377;-76
2022/12/14 05:31:50;;;;;;;12.75;6.85;;;0.60;83.10;;;;;;5075968;28;20070;-76
2022/12/14 05:34:16;;;;;;;13.73;7.05;;;0.50;83.40;;;;;;5075920;28;20068;-76
2022/12/14 05:36:42;;;;;;;14.65;7.47;;;0.50;83.70;;;;;;5075449;28;20082;-75
2022/12/14 05:39:08;;;;;;;13.23;7.38;;;0.50;83.50;;;;;;5074438;28;20029;-74
2022/12/14 05:41:33;;;;;;;15.10;7.45;;;0.40;83.40;;;;;;5074317;28;20037;-75
2022/12/14 05:43:59;;;;;;;16.17;7.15;;;0.50;83.70;;;;;;5075548;28;20357;-75
2022/12/14 05:46:24;;;;;;;15.32;6.55;;;0.50;83.60;;;;;;5073232;28;20465;-75
2022/12/14 05:48:50;;;;;;;17.83;6.85;;;0.40;83.30;;;;;;5073789;28;20060;-75
2022/12/14 05:51:16;;;;;;;15.00;7.40;;;0.30;83.50;;;;;;5074042;28;20040;-75
2022/12/14 05:53:41;;;;;;;13.70;6.40;;;0.40;83.90;;;;;;5074077;28;20021;-74
2022/12/14 05:56:09;;;;;;;13.93;6.72;;;0.40;84.00;;;;;;5074603;28;20038;-75
2022/12/14 05:58:35;;;;;;;14.90;7.15;;;0.50;83.80;;;;;;5075160;28;20021;-76
2022/12/14 06:01:10;;;;;;;14.40;6.50;;;0.50;83.20;;;;;;5075178;28;20032;-75
2022/12/14 06:03:36;;;;;;;14.10;6.75;;;0.40;83.30;;;;;;5074688;28;20028;-76
2022/12/14 06:06:07;;;;;;;13.40;6.53;;;0.30;83.60;;;;;;5073743;28;20020;-76
2022/12/14 06:08:37;;;;;;;14.95;7.38;;;0.20;83.60;;;;;;5074699;28;20158;-76
2022/12/14 06:11:15;;;;;;;13.95;6.78;;;0.20;84.10;;;;;;5073629;28;20063;-77
2022/12/14 06:13:41;;;;;;;14.82;6.45;;;0.20;83.80;;;;;;5074647;28;20040;-76
2022/12/14 06:16:12;;;;;;;13.60;6.97;;;0.30;83.60;;;;;;5073261;28;20032;-76
2022/12/14 06:19:04;;;;;;;21.23;8.40;;;0.30;83.70;;;;;;5073499;28;20123;-76
2022/12/14 06:21:33;;;;;;;14.07;6.45;;;0.20;83.50;;;;;;5071979;28;20075;-74
2022/12/14 06:23:59;;;;;;;15.27;7.25;;;0.30;84.50;;;;;;5074354;28;20107;-74
2022/12/14 06:26:26;;;;;;;18.50;6.35;;;0.40;84.50;;;;;;5073948;28;20032;-75
2022/12/14 06:28:51;;;;;;;14.35;6.03;;;0.30;85.00;;;;;;5073983;28;20103;-74
2022/12/14 06:31:29;;;;;;;9.85;5.50;;;0.50;87.00;;;;;;5072938;28;20174;-75
2022/12/14 06:33:58;;;;;;;10.50;5.20;;;0.70;87.40;;;;;;5074485;28;20408;-74
2022/12/14 06:36:27;;;;;;;10.23;5.47;;;0.90;89.10;;;;;;5074002;28;20115;-75
2022/12/14 06:38:54;;;;;;;10.82;5.70;;;1.10;89.10;;;;;;5074332;28;20033;-74
2022/12/14 06:41:21;;;;;;;5.65;3.33;;;1.30;87.40;;;;;;5074345;28;20060;-75
2022/12/14 06:43:47;;;;;;;12.52;5.65;;;1.60;96.00;;;;;;5074015;28;20029;-78
2022/12/14 06:46:14;;;;;;;10.30;5.00;;;2.30;92.80;;;;;;5074284;28;20362;-78
2022/12/14 06:48:40;;;;;;;16.38;6.03;;;2.40;91.60;;;;;;5056181;28;20032;-78
2022/12/14 06:51:06;;;;;;;12.48;5.75;;;2.40;88.00;;;;;;5065762;28;20131;-79
2022/12/14 06:53:34;;;;;;;11.38;6.00;;;2.30;85.10;;;;;;5072272;28;20028;-78
2022/12/14 06:56:11;;;;;;;14.50;6.05;;;2.10;84.40;;;;;;5057776;28;20483;-76
2022/12/14 06:58:37;;;;;;;14.30;5.97;;;2.00;80.50;;;;;;5067265;28;20025;-78
2022/12/14 07:01:06;;;;;;;13.18;6.18;;;1.60;78.70;;;;;;5060092;28;20041;-75
2022/12/14 07:03:32;;;;;;;11.80;5.70;;;1.30;79.80;;;;;;5070102;28;20027;-74
2022/12/14 07:05:58;;;;;;;15.27;6.47;;;1.00;79.70;;;;;;5069100;28;20028;-75
2022/12/14 07:08:25;;;;;;;23.63;7.05;;;0.80;80.90;;;;;;5057723;28;20060;-74
2022/12/14 07:10:52;;;;;;;13.27;5.47;;;0.70;80.60;;;;;;5064934;28;20431;-75
2022/12/14 07:13:18;;;;;;;14.05;5.60;;;0.60;81.80;;;;;;5064878;28;20039;-76
2022/12/14 07:15:50;;;;;;;12.52;6.47;;;0.70;82.20;;;;;;5053311;28;20405;-78
2022/12/14 07:18:15;;;;;;;15.45;6.40;;;0.70;81.50;;;;;;5062693;28;20035;-76
2022/12/14 07:20:41;;;;;;;34.42;7.80;;;0.60;81.80;;;;;;5069318;28;20025;-80
2022/12/14 07:23:07;;;;;;;15.70;7.40;;;0.70;81.70;;;;;;5072220;28;20046;-80
2022/12/14 07:25:33;;;;;;;16.67;7.32;;;0.50;81.60;;;;;;5052090;28;20140;-81
2022/12/14 07:27:58;;;;;;;17.08;7.47;;;0.50;81.90;;;;;;5054143;28;20131;-79
2022/12/14 07:30:24;;;;;;;14.07;7.28;;;0.30;82.40;;;;;;5054633;28;20067;-78
2022/12/14 07:32:49;;;;;;;18.48;7.22;;;0.10;83.00;;;;;;5058511;28;20046;-80
2022/12/14 07:35:15;;;;;;;14.13;7.20;;;0.00;83.80;;;;;;5072147;28;20032;-77
2022/12/14 07:37:41;;;;;;;15.38;7.00;;;0.00;84.20;;;;;;5068653;28;20039;-77
2022/12/14 07:40:07;;;;;;;14.10;6.93;;;0.10;84.40;;;;;;5071044;28;20063;-78
2022/12/14 07:42:33;;;;;;;17.05;7.55;;;0.20;84.60;;;;;;5065744;28;20064;-77
2022/12/14 07:45:00;;;;;;;18.80;7.80;;;0.40;84.70;;;;;;5051610;28;20067;-77
2022/12/14 07:47:29;;;;;;;14.70;7.07;;;0.50;83.80;;;;;;5069866;28;20025;-72
2022/12/14 07:49:54;;;;;;;16.95;6.90;;;0.50;84.30;;;;;;5052442;28;20116;-76
2022/12/14 07:52:20;;;;;;;20.85;7.95;;;0.50;85.20;;;;;;5067920;28;20140;-69
2022/12/14 07:54:45;;;;;;;21.02;8.60;;;0.60;86.20;;;;;;5051401;28;20108;-69
2022/12/14 07:57:11;;;;;;;14.98;7.47;;;0.70;86.50;;;;;;5052131;28;20112;-76
2022/12/14 07:59:37;;;;;;;25.10;8.25;;;0.90;87.00;;;;;;5055042;28;20463;-76
2022/12/14 08:02:02;;;;;;;11.75;6.60;;;1.10;87.90;;;;;;5054932;28;20086;-68
2022/12/14 08:04:28;;;;;;;14.75;7.20;;;1.30;87.40;;;;;;5070898;28;20492;-69
2022/12/14 08:06:54;;;;;;;13.30;6.47;;;1.50;88.20;;;;;;5054832;28;20384;-68
2022/12/14 08:09:19;;;;;;;21.08;7.97;;;1.70;87.90;;;;;;5071171;28;20419;-68
2022/12/14 08:11:45;;;;;;;15.60;7.40;;;1.80;85.70;;;;;;5075421;28;20421;-68
2022/12/14 08:14:15;;;;;;;13.57;7.45;;;1.70;83.60;;;;;;5076429;28;20097;-69
2022/12/14 08:16:41;;;;;;;15.43;8.15;;;1.70;83.70;;;;;;5076066;28;20028;-69
2022/12/14 08:19:08;;;;;;;16.40;8.70;;;1.70;83.40;;;;;;5076236;28;20112;-68
2022/12/14 08:21:34;;;;;;;24.50;9.35;;;1.80;83.10;;;;;;5058769;28;20031;-69
2022/12/14 08:24:00;;;;;;;21.10;9.32;;;1.80;82.80;;;;;;5076895;28;20469;-68
2022/12/14 08:26:26;;;;;;;19.33;10.23;;;1.80;82.90;;;;;;5054915;28;20056;-68
2022/12/14 08:28:53;;;;;;;20.00;10.15;;;1.80;85.60;;;;;;5074426;28;20182;-69
2022/12/14 08:31:22;;;;;;;20.50;9.73;;;1.80;86.30;;;;;;5074623;28;20036;-69
2022/12/14 08:33:48;;;;;;;22.08;11.10;;;1.90;86.50;;;;;;5072799;28;20029;-71
2022/12/14 08:36:16;;;;;;;32.78;12.57;;;1.80;82.90;;;;;;5074383;28;20043;-71
2022/12/14 08:38:42;;;;;;;24.67;11.23;;;1.70;82.30;;;;;;5069789;28;20381;-71
2022/12/14 08:41:10;;;;;;;23.58;12.38;;;1.50;81.60;;;;;;5074033;28;20033;-71
2022/12/14 08:43:36;;;;;;;21.38;10.02;;;1.50;84.00;;;;;;5075226;28;20016;-71
2022/12/14 08:46:02;;;;;;;23.05;11.18;;;1.50;85.40;;;;;;5056418;28;20473;-85
2022/12/14 08:48:28;;;;;;;19.65;10.32;;;1.60;84.80;;;;;;5056831;28;20092;-85
2022/12/14 08:50:53;;;;;;;19.90;9.90;;;1.70;87.40;;;;;;5055488;28;20116;-82
2022/12/14 08:53:20;;;;;;;24.05;12.65;;;1.90;87.30;;;;;;5048679;28;20028;-88
2022/12/14 08:55:45;;;;;;;21.92;10.43;;;2.00;85.80;;;;;;5071018;28;20033;-88
2022/12/14 08:58:12;;;;;;;21.30;11.32;;;2.10;86.10;;;;;;5070523;28;20040;-72
2022/12/14 09:00:38;;;;;;;19.60;9.35;;;2.20;84.70;;;;;;5065456;28;20029;-72
2022/12/14 09:03:04;;;;;;;15.82;9.25;;;2.30;85.00;;;;;;5069863;28;20457;-69
2022/12/14 09:05:30;;;;;;;20.00;10.25;;;2.40;84.90;;;;;;5072616;28;20052;-71
2022/12/14 09:07:56;;;;;;;14.57;8.50;;;2.50;84.40;;;;;;5068018;28;20068;-71
2022/12/14 09:10:22;;;;;;;24.27;10.23;;;2.50;84.40;;;;;;5070537;28;20061;-72
2022/12/14 09:12:47;;;;;;;19.42;10.75;;;2.60;84.30;;;;;;5064806;28;20434;-72
2022/12/14 09:15:13;;;;;;;18.70;10.75;;;2.60;80.70;;;;;;5071024;28;20563;-72
2022/12/14 09:17:39;;;;;;;18.25;10.50;;;2.40;79.80;;;;;;5072093;28;20150;-72
2022/12/14 09:20:05;;;;;;;21.15;10.82;;;2.40;80.60;;;;;;5059440;28;20025;-73
2022/12/14 09:22:31;;;;;;;18.50;10.32;;;2.40;80.60;;;;;;5052549;28;20029;-72
2022/12/14 09:24:56;;;;;;;22.10;10.85;;;2.30;79.50;;;;;;5054085;28;20032;-70
2022/12/14 09:27:22;;;;;;;20.02;10.30;;;2.30;79.70;;;;;;5054781;28;20048;-70
2022/12/14 09:29:49;;;;;;;16.90;10.10;;;2.30;79.50;;;;;;5037567;28;20362;-70
2022/12/14 09:32:14;;;;;;;24.42;10.07;;;2.20;78.90;;;;;;5055105;28;20565;-69
2022/12/14 09:34:40;;;;;;;21.63;11.07;;;2.20;79.00;;;;;;5055258;28;20108;-70
2022/12/14 09:37:06;;;;;;;25.58;10.43;;;2.10;78.70;;;;;;5055199;28;20469;-69
2022/12/14 09:39:32;;;;;;;23.67;11.05;;;2.20;79.10;;;;;;5053760;28;20051;-71
2022/12/14 09:42:36;;;;;;;25.95;11.27;;;2.20;79.70;;;;;;5055318;28;20090;-70
2022/12/14 09:45:13;;;;;;;27.48;10.43;;;2.20;79.80;;;;;;5055378;28;20025;-71
2022/12/14 09:47:56;;;;;;;28.15;11.27;;;2.20;79.90;;;;;;5063104;28;20029;-71
2022/12/14 09:50:22;;;;;;;24.43;11.07;;;2.30;80.70;;;;;;5055244;28;20074;-71
2022/12/14 09:53:05;;;;;;;21.48;10.32;;;2.20;78.90;;;;;;5054848;28;20110;-72
2022/12/14 09:55:42;;;;;;;20.27;10.07;;;2.20;79.30;;;;;;5061168;28;20025;-72
2022/12/14 09:58:20;;;;;;;17.02;9.48;;;2.20;79.70;;;;;;5075107;28;20024;-72
2022/12/14 10:00:55;;;;;;;19.83;10.18;;;2.30;79.40;;;;;;5073701;28;20039;-72
2022/12/14 10:03:40;;;;;;;18.63;9.80;;;2.30;77.80;;;;;;5074832;28;20103;-71
2022/12/14 10:06:14;;;;;;;20.42;10.48;;;2.20;78.20;;;;;;5074685;28;20025;-80
2022/12/14 10:08:53;;;;;;;17.13;9.90;;;2.30;78.50;;;;;;5074556;28;20048;-71
2022/12/14 10:11:31;;;;;;;22.27;10.55;;;2.30;79.00;;;;;;5075359;28;20032;-70
2022/12/14 10:14:29;;;;;;;14.93;8.48;;;2.40;77.70;;;;;;5072981;28;20064;-71
2022/12/14 10:17:00;;;;;;;20.50;8.98;;;2.50;77.90;;;;;;5049664;28;20039;-71
2022/12/14 10:19:39;;;;;;;22.73;9.77;;;2.60;77.40;;;;;;5074912;28;20044;-71
2022/12/14 10:22:15;;;;;;;21.35;9.82;;;2.60;77.00;;;;;;5074504;28;20028;-71
2022/12/14 10:25:12;;;;;;;20.52;8.60;;;2.70;77.10;;;;;;5074684;28;20025;-71
2022/12/14 10:27:40;;;;;;;13.95;8.38;;;2.90;77.10;;;;;;5052699;28;20045;-71
2022/12/14 10:30:18;;;;;;;13.65;8.10;;;3.00;76.60;;;;;;5074158;28;20452;-79
2022/12/14 10:32:51;;;;;;;25.05;10.02;;;3.20;76.50;;;;;;5073076;28;20116;-78
2022/12/14 10:35:19;;;;;;;17.77;9.70;;;3.30;75.60;;;;;;5073297;28;20036;-78
2022/12/14 10:38:02;;;;;;;18.50;8.98;;;3.20;74.80;;;;;;5074081;28;20032;-78
2022/12/14 10:40:30;;;;;;;18.55;8.98;;;3.10;76.00;;;;;;5073293;28;20037;-77
2022/12/14 10:43:20;;;;;;;17.70;9.50;;;3.10;75.10;;;;;;5074421;28;20082;-77
2022/12/14 10:45:48;;;;;;;17.38;9.38;;;3.10;74.60;;;;;;5074028;28;20025;-71
2022/12/14 10:48:23;;;;;;;18.02;9.88;;;3.00;75.20;;;;;;5072894;28;20021;-72
2022/12/14 10:50:58;;;;;;;18.25;8.85;;;3.00;75.30;;;;;;5073648;28;20120;-71
2022/12/14 10:53:37;;;;;;;18.55;9.07;;;3.20;76.20;;;;;;5072723;28;20060;-71
2022/12/14 10:56:10;;;;;;;16.33;8.73;;;3.50;76.50;;;;;;5072175;28;20464;-72
2022/12/14 10:58:35;;;;;;;79.68;11.15;;;3.70;75.90;;;;;;5072726;28;20093;-78
2022/12/14 11:01:01;;;;;;;76.15;13.73;;;3.90;75.40;;;;;;5072225;28;20036;-72
2022/12/14 11:03:27;;;;;;;25.20;9.85;;;4.00;74.70;;;;;;5072134;28;20064;-72
2022/12/14 11:06:18;;;;;;;22.98;9.43;;;4.00;74.10;;;;;;5072232;28;20509;-72
2022/12/14 11:08:48;;;;;;;15.82;8.15;;;4.00;74.60;;;;;;5074170;28;20025;-71
2022/12/14 11:11:21;;;;;;;19.35;8.95;;;4.20;74.90;;;;;;5072096;28;20044;-72
2022/12/14 11:13:51;;;;;;;17.33;9.55;;;4.30;74.90;;;;;;5072909;28;20182;-71
2022/12/14 11:16:26;;;;;;;25.50;10.73;;;4.50;74.30;;;;;;5073532;28;20028;-71
2022/12/14 11:19:00;;;;;;;24.98;9.00;;;4.50;73.30;;;;;;5073589;28;20032;-71
2022/12/14 11:21:35;;;;;;;22.50;10.18;;;4.40;73.30;;;;;;5070269;28;20036;-70
2022/12/14 11:24:02;;;;;;;15.40;8.73;;;4.50;73.60;;;;;;5073212;28;20497;-70
2022/12/14 11:26:31;;;;;;;19.85;9.18;;;4.60;73.90;;;;;;5071650;28;20032;-70
2022/12/14 11:28:59;;;;;;;17.98;8.82;;;4.70;73.80;;;;;;5073258;28;20059;-73
2022/12/14 11:31:36;;;;;;;19.23;9.90;;;4.80;73.40;;;;;;5073239;28;20032;-70
2022/12/14 11:34:03;;;;;;;16.60;8.75;;;4.80;73.10;;;;;;5072173;28;20376;-71
2022/12/14 11:36:35;;;;;;;15.32;8.43;;;4.80;72.60;;;;;;5054716;28;20120;-71
2022/12/14 11:39:01;;;;;;;17.92;9.32;;;4.80;71.70;;;;;;5072513;28;20472;-70
2022/12/14 11:41:37;;;;;;;15.55;8.65;;;4.70;70.90;;;;;;5073167;28;20067;-72
2022/12/14 11:44:22;;;;;;;18.15;8.70;;;4.70;71.30;;;;;;5071839;28;20016;-73
2022/12/14 11:47:05;;;;;;;16.90;8.40;;;4.70;71.20;;;;;;5072755;28;20060;-70
2022/12/14 11:49:37;;;;;;;14.10;7.40;;;4.70;71.20;;;;;;5071888;28;20032;-76
2022/12/14 11:52:17;;;;;;;13.35;7.60;;;4.80;71.80;;;;;;5071355;28;20043;-80
2022/12/14 11:54:45;;;;;;;12.77;6.57;;;4.80;70.70;;;;;;5071584;28;20025;-83
2022/12/14 11:57:11;;;;;;;17.45;9.18;;;4.80;71.00;;;;;;5072285;28;20056;-73
2022/12/14 11:59:46;;;;;;;14.43;8.43;;;4.80;70.30;;;;;;5072130;28;20075;-71
2022/12/14 12:02:21;;;;;;;13.73;7.78;;;4.70;70.10;;;;;;5072796;28;20380;-71
2022/12/14 12:04:53;;;;;;;16.77;7.82;;;4.70;70.60;;;;;;5072785;28;20021;-71
2022/12/14 12:07:38;;;;;;;13.70;7.00;;;4.70;70.80;;;;;;5073490;28;20032;-70
2022/12/14 12:10:12;;;;;;;16.42;7.40;;;4.80;71.00;;;;;;5073216;28;20064;-71
2022/12/14 12:12:47;;;;;;;15.80;7.72;;;4.90;71.00;;;;;;5071765;28;20032;-78
2022/12/14 12:15:20;;;;;;;13.02;7.88;;;4.90;71.10;;;;;;5071510;28;20173;-71
2022/12/14 12:17:49;;;;;;;14.68;8.27;;;5.00;70.90;;;;;;5072078;28;20051;-71
2022/12/14 12:20:38;;;;;;;14.10;7.93;;;5.10;70.60;;;;;;5073166;28;20036;-71
2022/12/14 12:23:15;;;;;;;18.60;9.68;;;5.20;70.60;;;;;;5072544;28;20457;-71
2022/12/14 12:25:43;;;;;;;14.00;7.97;;;5.20;69.90;;;;;;5072514;28;20021;-72
2022/12/14 12:28:21;;;;;;;16.35;8.57;;;5.20;70.40;;;;;;5071572;28;20070;-72
2022/12/14 12:30:52;;;;;;;16.48;9.30;;;5.20;70.60;;;;;;5071641;28;20033;-71
2022/12/14 12:33:45;;;;;;;21.85;9.82;;;5.20;69.90;;;;;;5072775;28;20054;-72
2022/12/14 12:36:14;;;;;;;15.85;8.75;;;5.10;70.20;;;;;;5072737;28;20384;-71
2022/12/14 12:39:05;;;;;;;23.10;7.88;;;5.00;70.80;;;;;;5071699;28;20045;-71
2022/12/14 12:41:45;;;;;;;17.08;6.50;;;5.10;70.00;;;;;;5072601;28;20120;-71
2022/12/14 12:44:38;;;;;;;10.85;6.03;;;5.20;69.90;;;;;;5072686;28;20032;-71
2022/12/14 12:47:22;;;;;;;13.38;5.53;;;5.50;69.40;;;;;;5072910;28;20029;-70
2022/12/14 12:49:48;;;;;;;11.20;6.32;;;5.70;67.60;;;;;;5071481;28;20051;-71
2022/12/14 12:52:25;;;;;;;9.75;5.55;;;5.90;66.60;;;;;;5071099;28;20107;-71
2022/12/14 12:54:56;;;;;;;15.98;6.50;;;6.10;66.30;;;;;;5071507;28;20036;-76
2022/12/14 12:57:27;;;;;;;11.88;5.63;;;6.20;65.00;;;;;;5074958;28;20028;-74
2022/12/14 12:59:55;;;;;;;10.77;5.22;;;6.30;65.20;;;;;;5073921;28;20123;-79
2022/12/14 13:02:34;;;;;;;14.40;5.53;;;6.40;63.80;;;;;;5073882;28;20035;-78
2022/12/14 13:05:10;;;;;;;13.60;5.90;;;6.50;63.90;;;;;;5075254;28;20048;-72
2022/12/14 13:07:48;;;;;;;21.35;6.82;;;6.70;63.80;;;;;;5076050;28;20020;-72
2022/12/14 13:10:30;;;;;;;9.80;6.05;;;6.70;64.20;;;;;;5075938;28;20029;-86
2022/12/14 13:12:57;;;;;;;13.55;5.53;;;6.60;61.80;;;;;;5074995;28;20029;-83
2022/12/14 13:15:34;;;;;;;12.10;5.65;;;6.60;63.40;;;;;;5075875;28;20128;-82
2022/12/14 13:18:09;;;;;;;17.63;5.15;;;6.80;63.90;;;;;;5076402;28;20025;-77